sensor_id;sensor_type;location;lat;lon;timestamp;pressure;altitude;pressure_sealevel;temperature;humidity
66385;BME280;53426;55.872;37.462;2023-09-19T00:00:46;99715.41;;;11.15;79.64
66385;BME280;53426;55.872;37.462;2023-09-19T00:03:13;99745.66;;;11.33;78.85
66385;BME280;53426;55.872;37.462;2023-09-19T00:05:40;99686.31;;;11.04;79.33
66385;BME280;53426;55.872;37.462;2023-09-19T00:08:07;99727.34;;;11.30;78.77
66385;BME280;53426;55.872;37.462;2023-09-19T00:10:34;99755.72;;;11.51;79.47
66385;BME280;53426;55.872;37.462;2023-09-19T00:13:05;99739.00;;;11.39;79.11
66385;BME280;53426;55.872;37.462;2023-09-19T00:15:37;99740.81;;;11.39;79.79
66385;BME280;53426;55.872;37.462;2023-09-19T00:18:05;99763.66;;;11.51;78.99
66385;BME280;53426;55.872;37.462;2023-09-19T00:20:37;99738.28;;;11.37;79.13
66385;BME280;53426;55.872;37.462;2023-09-19T00:23:05;99753.56;;;11.45;79.02
66385;BME280;53426;55.872;37.462;2023-09-19T00:25:32;99707.56;;;11.14;79.13
66385;BME280;53426;55.872;37.462;2023-09-19T00:28:00;99739.13;;;11.38;79.26
66385;BME280;53426;55.872;37.462;2023-09-19T00:30:26;99752.13;;;11.41;78.99
66385;BME280;53426;55.872;37.462;2023-09-19T00:32:55;99714.56;;;11.15;79.02
66385;BME280;53426;55.872;37.462;2023-09-19T00:35:23;99747.59;;;11.31;78.43
66385;BME280;53426;55.872;37.462;2023-09-19T00:37:50;99739.19;;;11.26;78.36
66385;BME280;53426;55.872;37.462;2023-09-19T00:40:16;99716.97;;;11.18;78.04
66385;BME280;53426;55.872;37.462;2023-09-19T00:42:43;99746.75;;;11.31;77.45
66385;BME280;53426;55.872;37.462;2023-09-19T00:45:13;99738.75;;;11.42;77.30
66385;BME280;53426;55.872;37.462;2023-09-19T00:47:41;99747.03;;;11.49;76.74
66385;BME280;53426;55.872;37.462;2023-09-19T00:50:09;99757.41;;;11.41;77.48
66385;BME280;53426;55.872;37.462;2023-09-19T00:52:37;99677.09;;;10.87;77.35
66385;BME280;53426;55.872;37.462;2023-09-19T00:55:08;99737.00;;;11.31;77.00
66385;BME280;53426;55.872;37.462;2023-09-19T00:57:36;99710.03;;;11.06;77.36
66385;BME280;53426;55.872;37.462;2023-09-19T01:00:05;99753.69;;;11.22;77.56
66385;BME280;53426;55.872;37.462;2023-09-19T01:02:34;99736.47;;;11.17;77.82
66385;BME280;53426;55.872;37.462;2023-09-19T01:05:01;99733.38;;;11.12;78.32
66385;BME280;53426;55.872;37.462;2023-09-19T01:07:33;99711.44;;;11.10;77.40
66385;BME280;53426;55.872;37.462;2023-09-19T01:10:03;99745.63;;;11.45;77.28
66385;BME280;53426;55.872;37.462;2023-09-19T01:15:47;99742.13;;;11.23;77.18
66385;BME280;53426;55.872;37.462;2023-09-19T01:29:44;99759.16;;;11.10;77.82
66385;BME280;53426;55.872;37.462;2023-09-19T01:32:16;99749.66;;;11.07;77.91
66385;BME280;53426;55.872;37.462;2023-09-19T01:34:54;99752.31;;;11.07;77.68
66385;BME280;53426;55.872;37.462;2023-09-19T01:37:24;99696.75;;;10.85;77.97
66385;BME280;53426;55.872;37.462;2023-09-19T01:40:06;99736.88;;;11.12;77.94
66385;BME280;53426;55.872;37.462;2023-09-19T01:42:59;99739.47;;;11.23;77.23
66385;BME280;53426;55.872;37.462;2023-09-19T01:46:12;99732.97;;;11.16;77.66
66385;BME280;53426;55.872;37.462;2023-09-19T01:48:48;99740.47;;;11.11;77.43
66385;BME280;53426;55.872;37.462;2023-09-19T01:51:30;99733.81;;;11.17;77.19
66385;BME280;53426;55.872;37.462;2023-09-19T01:56:39;99700.97;;;11.08;76.96
66385;BME280;53426;55.872;37.462;2023-09-19T01:59:11;99715.91;;;11.09;77.13
66385;BME280;53426;55.872;37.462;2023-09-19T02:01:40;99686.81;;;10.98;77.69
66385;BME280;53426;55.872;37.462;2023-09-19T02:04:10;99720.03;;;11.02;77.79
66385;BME280;53426;55.872;37.462;2023-09-19T02:06:40;99709.81;;;10.98;78.34
66385;BME280;53426;55.872;37.462;2023-09-19T02:09:07;99684.66;;;10.92;77.98
66385;BME280;53426;55.872;37.462;2023-09-19T02:11:35;99708.69;;;11.11;77.61
66385;BME280;53426;55.872;37.462;2023-09-19T02:14:02;99669.38;;;10.96;77.76
66385;BME280;53426;55.872;37.462;2023-09-19T02:16:30;99685.00;;;11.19;78.19
66385;BME280;53426;55.872;37.462;2023-09-19T02:18:56;99670.16;;;11.07;77.03
66385;BME280;53426;55.872;37.462;2023-09-19T02:21:23;99671.38;;;11.03;77.46
66385;BME280;53426;55.872;37.462;2023-09-19T02:23:49;99689.22;;;11.01;77.57
66385;BME280;53426;55.872;37.462;2023-09-19T02:26:15;99698.63;;;10.94;78.30
66385;BME280;53426;55.872;37.462;2023-09-19T02:28:41;99695.03;;;10.95;78.65
66385;BME280;53426;55.872;37.462;2023-09-19T02:31:09;99705.13;;;11.01;78.23
66385;BME280;53426;55.872;37.462;2023-09-19T02:33:36;99696.56;;;10.98;78.70
66385;BME280;53426;55.872;37.462;2023-09-19T02:36:04;99700.91;;;10.99;78.70
66385;BME280;53426;55.872;37.462;2023-09-19T02:38:32;99690.94;;;10.91;78.74
66385;BME280;53426;55.872;37.462;2023-09-19T02:40:59;99695.81;;;10.75;79.34
66385;BME280;53426;55.872;37.462;2023-09-19T02:43:25;99682.88;;;10.61;79.25
66385;BME280;53426;55.872;37.462;2023-09-19T02:45:51;99676.66;;;10.51;79.45
66385;BME280;53426;55.872;37.462;2023-09-19T02:48:21;99703.22;;;10.60;80.33
66385;BME280;53426;55.872;37.462;2023-09-19T02:50:49;99684.81;;;10.47;80.34
66385;BME280;53426;55.872;37.462;2023-09-19T02:53:15;99687.22;;;10.51;80.39
66385;BME280;53426;55.872;37.462;2023-09-19T02:55:42;99703.47;;;10.57;80.48
66385;BME280;53426;55.872;37.462;2023-09-19T02:58:09;99688.19;;;10.49;80.16
66385;BME280;53426;55.872;37.462;2023-09-19T03:00:39;99696.50;;;10.56;80.72
66385;BME280;53426;55.872;37.462;2023-09-19T03:03:08;99642.06;;;10.20;80.32
66385;BME280;53426;55.872;37.462;2023-09-19T03:05:35;99651.44;;;10.35;80.43
66385;BME280;53426;55.872;37.462;2023-09-19T03:08:01;99673.03;;;10.52;80.18
66385;BME280;53426;55.872;37.462;2023-09-19T03:10:27;99706.66;;;10.72;80.18
66385;BME280;53426;55.872;37.462;2023-09-19T03:12:56;99637.00;;;10.28;79.95
66385;BME280;53426;55.872;37.462;2023-09-19T03:15:24;99662.31;;;10.53;79.76
66385;BME280;53426;55.872;37.462;2023-09-19T03:17:52;99690.78;;;10.72;79.92
66385;BME280;53426;55.872;37.462;2023-09-19T03:20:21;99702.06;;;10.85;79.60
66385;BME280;53426;55.872;37.462;2023-09-19T03:22:50;99663.25;;;10.63;79.71
66385;BME280;53426;55.872;37.462;2023-09-19T03:25:18;99692.41;;;10.84;79.66
66385;BME280;53426;55.872;37.462;2023-09-19T03:27:48;99710.97;;;10.84;79.27
66385;BME280;53426;55.872;37.462;2023-09-19T03:30:14;99708.56;;;10.81;79.35
66385;BME280;53426;55.872;37.462;2023-09-19T03:32:46;99698.22;;;10.78;79.38
66385;BME280;53426;55.872;37.462;2023-09-19T03:35:13;99642.38;;;10.38;79.77
66385;BME280;53426;55.872;37.462;2023-09-19T03:37:44;99666.91;;;10.51;80.13
66385;BME280;53426;55.872;37.462;2023-09-19T03:40:11;99702.63;;;10.88;79.80
66385;BME280;53426;55.872;37.462;2023-09-19T03:42:39;99696.94;;;10.93;79.77
66385;BME280;53426;55.872;37.462;2023-09-19T03:45:07;99692.00;;;11.00;79.56
66385;BME280;53426;55.872;37.462;2023-09-19T03:47:38;99664.44;;;10.91;78.76
66385;BME280;53426;55.872;37.462;2023-09-19T03:50:06;99705.97;;;11.22;78.32
66385;BME280;53426;55.872;37.462;2023-09-19T03:52:41;99674.69;;;11.16;77.65
66385;BME280;53426;55.872;37.462;2023-09-19T03:55:08;99693.50;;;11.34;77.86
66385;BME280;53426;55.872;37.462;2023-09-19T04:01:11;99645.38;;;10.97;77.46
66385;BME280;53426;55.872;37.462;2023-09-19T04:03:38;99695.44;;;11.32;77.71
66385;BME280;53426;55.872;37.462;2023-09-19T04:06:14;99677.25;;;11.27;78.04
66385;BME280;53426;55.872;37.462;2023-09-19T04:08:41;99627.03;;;11.26;77.17
66385;BME280;53426;55.872;37.462;2023-09-19T04:11:08;99674.72;;;11.47;76.50
66385;BME280;53426;55.872;37.462;2023-09-19T04:13:34;99677.19;;;11.39;77.30
66385;BME280;53426;55.872;37.462;2023-09-19T04:16:00;99667.75;;;11.25;76.75
66385;BME280;53426;55.872;37.462;2023-09-19T04:18:29;99677.59;;;11.34;77.52
66385;BME280;53426;55.872;37.462;2023-09-19T04:20:59;99677.84;;;11.31;76.80
66385;BME280;53426;55.872;37.462;2023-09-19T04:23:28;99610.38;;;10.94;77.95
66385;BME280;53426;55.872;37.462;2023-09-19T04:25:54;99674.66;;;11.37;77.23
66385;BME280;53426;55.872;37.462;2023-09-19T04:28:20;99673.59;;;11.40;77.67
66385;BME280;53426;55.872;37.462;2023-09-19T04:30:45;99661.34;;;11.27;76.85
66385;BME280;53426;55.872;37.462;2023-09-19T04:33:12;99669.44;;;11.26;77.74
66385;BME280;53426;55.872;37.462;2023-09-19T04:35:41;99652.44;;;11.28;78.07
66385;BME280;53426;55.872;37.462;2023-09-19T04:38:08;99657.78;;;11.38;77.05
66385;BME280;53426;55.872;37.462;2023-09-19T04:40:36;99666.72;;;11.37;77.04
66385;BME280;53426;55.872;37.462;2023-09-19T04:43:05;99663.22;;;11.37;77.23
66385;BME280;53426;55.872;37.462;2023-09-19T04:45:31;99654.03;;;11.20;77.62
66385;BME280;53426;55.872;37.462;2023-09-19T04:47:57;99626.53;;;11.11;77.72
66385;BME280;53426;55.872;37.462;2023-09-19T04:50:23;99663.88;;;11.29;77.31
66385;BME280;53426;55.872;37.462;2023-09-19T04:52:53;99598.09;;;10.93;78.36
66385;BME280;53426;55.872;37.462;2023-09-19T04:55:19;99596.69;;;10.88;78.34
66385;BME280;53426;55.872;37.462;2023-09-19T04:57:50;99628.38;;;11.20;78.31
66385;BME280;53426;55.872;37.462;2023-09-19T05:00:17;99661.53;;;11.36;77.75
66385;BME280;53426;55.872;37.462;2023-09-19T05:02:45;99630.41;;;11.07;77.73
66385;BME280;53426;55.872;37.462;2023-09-19T05:05:11;99668.47;;;11.27;77.91
66385;BME280;53426;55.872;37.462;2023-09-19T05:07:40;99653.81;;;11.23;78.31
66385;BME280;53426;55.872;37.462;2023-09-19T05:10:07;99642.09;;;11.25;78.53
66385;BME280;53426;55.872;37.462;2023-09-19T05:12:34;99629.78;;;11.24;77.97
66385;BME280;53426;55.872;37.462;2023-09-19T05:15:02;99652.50;;;11.38;78.37
66385;BME280;53426;55.872;37.462;2023-09-19T05:17:30;99649.44;;;11.43;77.44
66385;BME280;53426;55.872;37.462;2023-09-19T05:19:57;99635.09;;;11.45;77.67
66385;BME280;53426;55.872;37.462;2023-09-19T05:22:37;99654.97;;;11.60;78.03
66385;BME280;53426;55.872;37.462;2023-09-19T05:25:06;99650.97;;;11.66;77.43
66385;BME280;53426;55.872;37.462;2023-09-19T05:27:32;99653.22;;;11.70;76.99
66385;BME280;53426;55.872;37.462;2023-09-19T05:29:59;99639.56;;;11.75;76.65
66385;BME280;53426;55.872;37.462;2023-09-19T05:32:25;99633.44;;;11.74;76.61
66385;BME280;53426;55.872;37.462;2023-09-19T05:34:51;99639.19;;;11.89;76.62
66385;BME280;53426;55.872;37.462;2023-09-19T05:37:22;99640.22;;;11.98;76.35
66385;BME280;53426;55.872;37.462;2023-09-19T05:39:49;99644.03;;;12.14;75.84
66385;BME280;53426;55.872;37.462;2023-09-19T05:42:15;99622.81;;;12.14;75.24
66385;BME280;53426;55.872;37.462;2023-09-19T05:44:42;99633.00;;;12.29;75.23
66385;BME280;53426;55.872;37.462;2023-09-19T05:47:08;99634.44;;;12.71;74.01
66385;BME280;53426;55.872;37.462;2023-09-19T05:49:35;99639.75;;;13.29;72.40
66385;BME280;53426;55.872;37.462;2023-09-19T05:52:07;99641.06;;;14.44;69.03
66385;BME280;53426;55.872;37.462;2023-09-19T05:54:34;99635.84;;;15.39;64.96
66385;BME280;53426;55.872;37.462;2023-09-19T05:57:00;99634.97;;;16.32;62.36
66385;BME280;53426;55.872;37.462;2023-09-19T05:59:28;99625.41;;;16.88;60.43
66385;BME280;53426;55.872;37.462;2023-09-19T06:01:54;99633.59;;;17.27;58.26
66385;BME280;53426;55.872;37.462;2023-09-19T06:04:21;99633.50;;;17.75;56.90
66385;BME280;53426;55.872;37.462;2023-09-19T06:06:47;99639.19;;;18.19;54.97
66385;BME280;53426;55.872;37.462;2023-09-19T06:09:14;99627.53;;;18.35;54.54
66385;BME280;53426;55.872;37.462;2023-09-19T06:11:42;99605.66;;;17.92;55.05
66385;BME280;53426;55.872;37.462;2023-09-19T06:14:09;99609.72;;;18.19;54.45
66385;BME280;53426;55.872;37.462;2023-09-19T06:16:36;99620.50;;;18.88;54.04
66385;BME280;53426;55.872;37.462;2023-09-19T06:19:04;99620.81;;;19.30;51.20
66385;BME280;53426;55.872;37.462;2023-09-19T06:21:34;99619.13;;;19.67;51.31
66385;BME280;53426;55.872;37.462;2023-09-19T06:24:00;99621.69;;;20.04;49.92
66385;BME280;53426;55.872;37.462;2023-09-19T06:26:26;99629.63;;;20.63;48.95
66385;BME280;53426;55.872;37.462;2023-09-19T06:28:53;99621.00;;;20.88;47.30
66385;BME280;53426;55.872;37.462;2023-09-19T06:31:19;99625.03;;;21.20;47.12
66385;BME280;53426;55.872;37.462;2023-09-19T06:33:48;99617.47;;;21.31;46.71
66385;BME280;53426;55.872;37.462;2023-09-19T06:36:14;99614.41;;;21.68;45.19
66385;BME280;53426;55.872;37.462;2023-09-19T06:38:40;99602.59;;;22.03;45.25
66385;BME280;53426;55.872;37.462;2023-09-19T06:41:06;99610.41;;;22.39;44.40
66385;BME280;53426;55.872;37.462;2023-09-19T06:43:34;99604.47;;;22.09;44.27
66385;BME280;53426;55.872;37.462;2023-09-19T06:46:03;99617.75;;;21.42;46.14
66385;BME280;53426;55.872;37.462;2023-09-19T06:48:30;99624.91;;;21.07;47.00
66385;BME280;53426;55.872;37.462;2023-09-19T06:50:57;99624.59;;;20.74;47.46
66385;BME280;53426;55.872;37.462;2023-09-19T06:53:24;99624.75;;;20.52;47.93
66385;BME280;53426;55.872;37.462;2023-09-19T06:55:51;99624.16;;;20.35;48.87
66385;BME280;53426;55.872;37.462;2023-09-19T06:58:17;99611.94;;;20.32;48.82
66385;BME280;53426;55.872;37.462;2023-09-19T07:00:43;99617.75;;;19.85;50.38
66385;BME280;53426;55.872;37.462;2023-09-19T07:03:10;99610.22;;;19.51;51.03
66385;BME280;53426;55.872;37.462;2023-09-19T07:05:40;99617.84;;;19.25;52.17
66385;BME280;53426;55.872;37.462;2023-09-19T07:08:07;99615.50;;;19.07;52.76
66385;BME280;53426;55.872;37.462;2023-09-19T07:10:34;99609.47;;;18.83;53.38
66385;BME280;53426;55.872;37.462;2023-09-19T07:13:01;99610.09;;;18.93;53.65
66385;BME280;53426;55.872;37.462;2023-09-19T07:15:31;99600.16;;;18.93;53.50
66385;BME280;53426;55.872;37.462;2023-09-19T07:17:59;99611.56;;;18.72;54.33
66385;BME280;53426;55.872;37.462;2023-09-19T07:20:26;99601.69;;;18.73;54.19
66385;BME280;53426;55.872;37.462;2023-09-19T07:22:53;99598.53;;;18.69;54.43
66385;BME280;53426;55.872;37.462;2023-09-19T07:25:23;99602.78;;;19.01;54.23
66385;BME280;53426;55.872;37.462;2023-09-19T07:27:49;99606.81;;;19.20;53.50
66385;BME280;53426;55.872;37.462;2023-09-19T07:30:16;99601.28;;;19.36;53.03
66385;BME280;53426;55.872;37.462;2023-09-19T07:32:43;99603.38;;;19.11;53.33
66385;BME280;53426;55.872;37.462;2023-09-19T07:35:09;99597.47;;;20.19;51.08
66385;BME280;53426;55.872;37.462;2023-09-19T07:37:35;99587.72;;;20.96;49.41
66385;BME280;53426;55.872;37.462;2023-09-19T07:40:06;99587.25;;;22.10;46.95
66385;BME280;53426;55.872;37.462;2023-09-19T07:42:36;99578.16;;;22.18;45.75
66385;BME280;53426;55.872;37.462;2023-09-19T07:45:05;99595.63;;;21.88;46.23
66385;BME280;53426;55.872;37.462;2023-09-19T07:47:31;99594.19;;;21.51;47.03
66385;BME280;53426;55.872;37.462;2023-09-19T07:49:59;99595.75;;;21.73;46.78
66385;BME280;53426;55.872;37.462;2023-09-19T07:52:29;99589.38;;;21.81;46.85
66385;BME280;53426;55.872;37.462;2023-09-19T07:54:55;99586.94;;;21.02;48.24
66385;BME280;53426;55.872;37.462;2023-09-19T07:57:23;99583.47;;;20.59;49.53
66385;BME280;53426;55.872;37.462;2023-09-19T07:59:48;99588.69;;;20.46;50.29
66385;BME280;53426;55.872;37.462;2023-09-19T08:02:14;99592.16;;;20.25;50.49
66385;BME280;53426;55.872;37.462;2023-09-19T08:04:44;99585.69;;;19.69;51.95
66385;BME280;53426;55.872;37.462;2023-09-19T08:07:13;99563.78;;;19.13;53.57
66385;BME280;53426;55.872;37.462;2023-09-19T08:09:39;99577.78;;;18.63;54.98
66385;BME280;53426;55.872;37.462;2023-09-19T08:12:06;99575.25;;;18.39;55.98
66385;BME280;53426;55.872;37.462;2023-09-19T08:14:33;99586.88;;;18.31;56.40
66385;BME280;53426;55.872;37.462;2023-09-19T08:16:59;99571.34;;;17.88;57.51
66385;BME280;53426;55.872;37.462;2023-09-19T08:19:26;99586.59;;;17.87;57.71
66385;BME280;53426;55.872;37.462;2023-09-19T08:21:57;99568.22;;;17.76;58.00
66385;BME280;53426;55.872;37.462;2023-09-19T08:24:30;99582.47;;;17.69;58.85
66385;BME280;53426;55.872;37.462;2023-09-19T08:26:57;99575.31;;;17.53;59.64
66385;BME280;53426;55.872;37.462;2023-09-19T08:29:24;99574.69;;;17.35;60.42
66385;BME280;53426;55.872;37.462;2023-09-19T08:31:56;99550.34;;;17.05;61.46
66385;BME280;53426;55.872;37.462;2023-09-19T08:34:25;99553.53;;;17.01;61.84
66385;BME280;53426;55.872;37.462;2023-09-19T08:36:52;99560.56;;;16.78;62.41
66385;BME280;53426;55.872;37.462;2023-09-19T08:39:24;99542.84;;;16.60;62.83
66385;BME280;53426;55.872;37.462;2023-09-19T08:42:01;99537.66;;;16.75;62.51
66385;BME280;53426;55.872;37.462;2023-09-19T08:44:28;99558.06;;;16.84;62.65
66385;BME280;53426;55.872;37.462;2023-09-19T08:47:16;99558.03;;;17.00;62.55
66385;BME280;53426;55.872;37.462;2023-09-19T08:52:27;99518.13;;;16.66;63.42
66385;BME280;53426;55.872;37.462;2023-09-19T08:54:59;99541.50;;;16.89;62.85
66385;BME280;53426;55.872;37.462;2023-09-19T08:57:33;99558.03;;;17.00;63.13
66385;BME280;53426;55.872;37.462;2023-09-19T09:00:02;99558.19;;;16.99;62.91
66385;BME280;53426;55.872;37.462;2023-09-19T09:02:40;99549.34;;;17.06;62.72
66385;BME280;53426;55.872;37.462;2023-09-19T09:05:09;99553.00;;;17.05;62.80
66385;BME280;53426;55.872;37.462;2023-09-19T09:07:40;99537.31;;;16.86;63.10
66385;BME280;53426;55.872;37.462;2023-09-19T09:10:07;99552.69;;;16.92;63.06
66385;BME280;53426;55.872;37.462;2023-09-19T09:12:35;99539.13;;;17.10;63.19
66385;BME280;53426;55.872;37.462;2023-09-19T09:15:07;99556.13;;;17.25;62.48
66385;BME280;53426;55.872;37.462;2023-09-19T09:17:34;99544.47;;;17.18;62.29
66385;BME280;53426;55.872;37.462;2023-09-19T09:20:00;99545.94;;;17.21;63.01
66385;BME280;53426;55.872;37.462;2023-09-19T09:22:30;99546.47;;;17.08;62.70
66385;BME280;53426;55.872;37.462;2023-09-19T09:24:58;99552.66;;;17.17;62.63
66385;BME280;53426;55.872;37.462;2023-09-19T09:27:24;99539.94;;;17.19;62.37
66385;BME280;53426;55.872;37.462;2023-09-19T09:29:52;99548.91;;;17.42;62.07
66385;BME280;53426;55.872;37.462;2023-09-19T09:34:57;99540.00;;;17.66;61.34
66385;BME280;53426;55.872;37.462;2023-09-19T09:37:25;99547.34;;;17.64;61.43
66385;BME280;53426;55.872;37.462;2023-09-19T09:39:58;99540.59;;;17.76;61.47
66385;BME280;53426;55.872;37.462;2023-09-19T09:42:34;99527.38;;;17.74;61.67
66385;BME280;53426;55.872;37.462;2023-09-19T09:47:54;99524.19;;;18.10;60.64
66385;BME280;53426;55.872;37.462;2023-09-19T09:50:32;99522.03;;;18.28;60.32
66385;BME280;53426;55.872;37.462;2023-09-19T09:53:24;99527.78;;;18.48;60.42
66385;BME280;53426;55.872;37.462;2023-09-19T09:56:07;99513.88;;;18.44;59.98
66385;BME280;53426;55.872;37.462;2023-09-19T09:58:35;99519.78;;;18.62;58.89
66385;BME280;53426;55.872;37.462;2023-09-19T10:01:03;99503.03;;;18.60;59.16
66385;BME280;53426;55.872;37.462;2023-09-19T10:03:38;99528.44;;;19.25;57.82
66385;BME280;53426;55.872;37.462;2023-09-19T10:06:15;99517.50;;;19.55;56.85
66385;BME280;53426;55.872;37.462;2023-09-19T10:09:07;99492.41;;;19.48;56.36
66385;BME280;53426;55.872;37.462;2023-09-19T10:12:05;99504.66;;;20.01;55.67
66385;BME280;53426;55.872;37.462;2023-09-19T10:14:35;99500.78;;;20.46;54.05
66385;BME280;53426;55.872;37.462;2023-09-19T10:17:09;99510.66;;;21.51;51.54
66385;BME280;53426;55.872;37.462;2023-09-19T10:19:57;99507.09;;;22.78;48.68
66385;BME280;53426;55.872;37.462;2023-09-19T10:22:24;99503.59;;;23.68;46.62
66385;BME280;53426;55.872;37.462;2023-09-19T10:24:53;99496.53;;;24.75;43.61
66385;BME280;53426;55.872;37.462;2023-09-19T10:27:21;99505.38;;;25.31;42.55
66385;BME280;53426;55.872;37.462;2023-09-19T10:29:49;99500.34;;;25.53;41.81
66385;BME280;53426;55.872;37.462;2023-09-19T10:32:27;99474.13;;;26.02;40.70
66385;BME280;53426;55.872;37.462;2023-09-19T10:34:55;99467.19;;;26.59;40.08
66385;BME280;53426;55.872;37.462;2023-09-19T10:37:24;99491.44;;;27.42;38.34
66385;BME280;53426;55.872;37.462;2023-09-19T10:39:51;99456.03;;;27.02;38.07
66385;BME280;53426;55.872;37.462;2023-09-19T10:42:22;99444.44;;;26.95;38.05
66385;BME280;53426;55.872;37.462;2023-09-19T10:44:52;99454.63;;;27.11;37.95
66385;BME280;53426;55.872;37.462;2023-09-19T10:47:20;99478.66;;;26.61;39.00
66385;BME280;53426;55.872;37.462;2023-09-19T10:49:49;99478.44;;;26.86;38.91
66385;BME280;53426;55.872;37.462;2023-09-19T10:52:21;99472.31;;;27.14;38.30
66385;BME280;53426;55.872;37.462;2023-09-19T10:54:51;99463.56;;;27.12;37.54
66385;BME280;53426;55.872;37.462;2023-09-19T10:57:21;99471.59;;;27.18;37.72
66385;BME280;53426;55.872;37.462;2023-09-19T11:00:07;99421.50;;;26.56;38.35
66385;BME280;53426;55.872;37.462;2023-09-19T11:05:42;99473.22;;;26.61;38.80
66385;BME280;53426;55.872;37.462;2023-09-19T11:08:10;99470.97;;;26.16;39.57
66385;BME280;53426;55.872;37.462;2023-09-19T11:10:47;99371.81;;;25.42;40.20
66385;BME280;53426;55.872;37.462;2023-09-19T11:13:24;99434.41;;;25.59;40.81
66385;BME280;53426;55.872;37.462;2023-09-19T11:27:09;99459.31;;;22.92;47.49
66385;BME280;53426;55.872;37.462;2023-09-19T11:29:37;99448.09;;;22.29;48.54
66385;BME280;53426;55.872;37.462;2023-09-19T11:32:05;99445.72;;;21.93;49.63
66385;BME280;53426;55.872;37.462;2023-09-19T11:34:44;99441.09;;;21.67;51.04
66385;BME280;53426;55.872;37.462;2023-09-19T11:40:05;99449.25;;;21.40;51.53
66385;BME280;53426;55.872;37.462;2023-09-19T11:42:47;99426.91;;;21.11;52.88
66385;BME280;53426;55.872;37.462;2023-09-19T11:48:19;99414.25;;;20.99;53.54
66385;BME280;53426;55.872;37.462;2023-09-19T11:50:46;99417.34;;;21.02;52.88
66385;BME280;53426;55.872;37.462;2023-09-19T11:53:13;99418.00;;;21.04;53.09
66385;BME280;53426;55.872;37.462;2023-09-19T11:55:41;99412.94;;;20.88;54.03
66385;BME280;53426;55.872;37.462;2023-09-19T11:58:17;99423.66;;;20.81;54.38
66385;BME280;53426;55.872;37.462;2023-09-19T12:00:45;99384.69;;;20.71;54.18
66385;BME280;53426;55.872;37.462;2023-09-19T12:03:13;99418.09;;;20.83;54.75
66385;BME280;53426;55.872;37.462;2023-09-19T12:05:44;99396.88;;;20.67;54.71
66385;BME280;53426;55.872;37.462;2023-09-19T12:08:10;99354.09;;;20.44;55.31
66385;BME280;53426;55.872;37.462;2023-09-19T12:10:47;99393.13;;;20.68;55.62
66385;BME280;53426;55.872;37.462;2023-09-19T12:13:18;99404.16;;;20.73;55.67
66385;BME280;53426;55.872;37.462;2023-09-19T12:15:48;99386.88;;;20.61;55.88
66385;BME280;53426;55.872;37.462;2023-09-19T12:18:30;99376.19;;;20.67;55.91
66385;BME280;53426;55.872;37.462;2023-09-19T12:20:56;99379.66;;;20.61;56.23
66385;BME280;53426;55.872;37.462;2023-09-19T12:23:28;99381.16;;;20.70;56.04
66385;BME280;53426;55.872;37.462;2023-09-19T12:25:55;99380.56;;;20.75;55.98
66385;BME280;53426;55.872;37.462;2023-09-19T12:28:26;99377.47;;;20.78;56.03
66385;BME280;53426;55.872;37.462;2023-09-19T12:30:53;99374.97;;;20.76;56.13
66385;BME280;53426;55.872;37.462;2023-09-19T12:33:21;99356.09;;;20.70;56.24
66385;BME280;53426;55.872;37.462;2023-09-19T12:35:52;99371.53;;;20.89;56.06
66385;BME280;53426;55.872;37.462;2023-09-19T12:38:28;99368.88;;;20.96;55.53
66385;BME280;53426;55.872;37.462;2023-09-19T12:40:57;99370.34;;;20.98;56.15
66385;BME280;53426;55.872;37.462;2023-09-19T12:43:29;99357.81;;;20.84;56.50
66385;BME280;53426;55.872;37.462;2023-09-19T12:45:59;99368.84;;;20.89;56.14
66385;BME280;53426;55.872;37.462;2023-09-19T12:48:27;99362.00;;;20.86;56.63
66385;BME280;53426;55.872;37.462;2023-09-19T12:51:06;99357.25;;;20.88;55.96
66385;BME280;53426;55.872;37.462;2023-09-19T12:53:38;99360.38;;;20.92;56.56
66385;BME280;53426;55.872;37.462;2023-09-19T12:56:18;99363.69;;;20.94;56.89
66385;BME280;53426;55.872;37.462;2023-09-19T12:58:57;99364.72;;;20.93;56.98
66385;BME280;53426;55.872;37.462;2023-09-19T13:01:26;99359.72;;;20.90;56.92
66385;BME280;53426;55.872;37.462;2023-09-19T13:04:12;99354.78;;;20.94;57.39
66385;BME280;53426;55.872;37.462;2023-09-19T13:06:41;99345.44;;;20.89;56.91
66385;BME280;53426;55.872;37.462;2023-09-19T13:09:10;99337.34;;;20.83;56.76
66385;BME280;53426;55.872;37.462;2023-09-19T13:11:37;99325.31;;;20.79;57.34
66385;BME280;53426;55.872;37.462;2023-09-19T13:14:25;99354.47;;;20.75;58.08
66385;BME280;53426;55.872;37.462;2023-09-19T13:17:03;99346.53;;;20.61;58.44
66385;BME280;53426;55.872;37.462;2023-09-19T13:19:44;99326.59;;;20.49;58.71
66385;BME280;53426;55.872;37.462;2023-09-19T13:22:43;99349.22;;;20.61;58.53
66385;BME280;53426;55.872;37.462;2023-09-19T13:25:20;99339.72;;;20.65;58.42
66385;BME280;53426;55.872;37.462;2023-09-19T13:27:51;99295.34;;;20.48;58.39
66385;BME280;53426;55.872;37.462;2023-09-19T13:30:21;99338.28;;;20.69;58.30
66385;BME280;53426;55.872;37.462;2023-09-19T13:32:47;99320.25;;;20.63;58.39
66385;BME280;53426;55.872;37.462;2023-09-19T13:35:15;99333.38;;;20.72;58.51
66385;BME280;53426;55.872;37.462;2023-09-19T13:37:42;99326.75;;;20.75;58.20
66385;BME280;53426;55.872;37.462;2023-09-19T13:40:09;99326.91;;;20.67;58.91
66385;BME280;53426;55.872;37.462;2023-09-19T13:42:36;99321.31;;;20.68;58.29
66385;BME280;53426;55.872;37.462;2023-09-19T13:45:06;99304.09;;;20.63;58.96
66385;BME280;53426;55.872;37.462;2023-09-19T13:47:33;99306.59;;;20.64;58.78
66385;BME280;53426;55.872;37.462;2023-09-19T13:50:02;99313.25;;;20.68;59.11
66385;BME280;53426;55.872;37.462;2023-09-19T13:52:31;99301.47;;;20.69;58.51